createdAt,value
2019-05-11T00:00:05.432Z,95792.39
2019-05-11T00:02:38.258Z,95788.24
2019-05-11T00:05:09.520Z,95789.16
2019-05-11T00:07:43.513Z,95794.02
2019-05-11T00:10:14.002Z,95797.86
2019-05-11T00:12:47.354Z,95795.77
2019-05-11T00:15:18.696Z,95793.58
2019-05-11T00:17:50.811Z,95788.34
2019-05-11T00:20:22.040Z,95795.17
2019-05-11T00:22:53.736Z,95795.28
2019-05-11T00:25:25.279Z,95791.11
2019-05-11T00:27:56.784Z,95798.21
2019-05-11T00:30:28.133Z,95794.25
2019-05-11T00:32:59.398Z,95794.07
2019-05-11T00:35:31.018Z,95790.15
2019-05-11T00:38:02.362Z,95788.92
2019-05-11T00:40:33.699Z,95773.25
2019-05-11T00:43:05.055Z,95765.69
2019-05-11T00:45:36.640Z,95770.11
2019-05-11T00:48:07.938Z,95779.64
2019-05-11T00:50:40.782Z,95782.30
2019-05-11T00:53:13.599Z,95781.73
2019-05-11T00:55:44.996Z,95778.13
2019-05-11T00:58:16.343Z,95770.10
2019-05-11T01:00:47.788Z,95777.20
2019-05-11T01:03:19.191Z,95771.97
2019-05-11T01:05:50.973Z,95766.85
2019-05-11T01:08:22.313Z,95768.70
2019-05-11T01:10:54.065Z,95771.63
2019-05-11T01:13:25.280Z,95770.69
2019-05-11T01:15:58.397Z,95786.48
2019-05-11T01:18:32.584Z,95782.89
2019-05-11T01:21:04.209Z,95773.95
2019-05-11T01:23:35.895Z,95770.02
2019-05-11T01:26:07.268Z,95771.63
2019-05-11T01:28:38.519Z,95771.38
2019-05-11T01:31:09.901Z,95763.59
2019-05-11T01:33:41.663Z,95770.32
2019-05-11T01:36:13.436Z,95777.45
2019-05-11T01:38:44.812Z,95777.56
2019-05-11T01:41:16.238Z,95771.48
2019-05-11T01:43:50.220Z,95763.81
2019-05-11T01:46:21.967Z,95765.82
2019-05-11T01:48:53.448Z,95761.52
2019-05-11T01:51:24.675Z,95757.57
2019-05-11T01:53:55.917Z,95757.45
2019-05-11T01:56:27.266Z,95748.75
2019-05-11T01:58:58.854Z,95750.94
2019-05-11T02:01:30.929Z,95753.95
2019-05-11T02:04:02.885Z,95756.30
2019-05-11T02:06:34.150Z,95755.14
2019-05-11T02:09:06.816Z,95755.95
2019-05-11T02:11:38.090Z,95757.91
2019-05-11T02:14:09.892Z,95760.67
2019-05-11T02:16:41.177Z,95760.59
2019-05-11T02:19:12.843Z,95756.37
2019-05-11T02:21:44.552Z,95753.70
2019-05-11T02:24:16.392Z,95749.66
2019-05-11T02:26:47.806Z,95739.95
2019-05-11T02:29:19.039Z,95739.13
2019-05-11T02:31:50.260Z,95735.91
2019-05-11T02:34:21.569Z,95731.94
2019-05-11T02:36:53.317Z,95747.11
2019-05-11T02:39:24.809Z,95735.97
2019-05-11T02:41:56.070Z,95734.44
2019-05-11T02:44:27.493Z,95733.85
2019-05-11T02:46:59.042Z,95726.18
2019-05-11T02:49:30.237Z,95727.79
2019-05-11T02:52:01.871Z,95728.77
2019-05-11T02:54:33.221Z,95731.26
2019-05-11T02:57:04.439Z,95726.08
2019-05-11T02:59:35.945Z,95732.23
2019-05-11T03:02:07.180Z,95720.27
2019-05-11T03:04:38.630Z,95718.98
2019-05-11T03:07:10.046Z,95707.72
2019-05-11T03:09:42.448Z,95710.02
2019-05-11T03:12:13.763Z,95700.37
2019-05-11T03:14:45.592Z,95695.21
2019-05-11T03:17:20.758Z,95681.97
2019-05-11T03:19:51.971Z,95688.73
2019-05-11T03:22:23.190Z,95694.85
2019-05-11T03:24:56.041Z,95709.64
2019-05-11T03:27:27.497Z,95708.74
2019-05-11T03:30:01.034Z,95709.35
2019-05-11T03:32:32.616Z,95714.46
2019-05-11T03:35:04.021Z,95716.44
2019-05-11T03:37:35.366Z,95715.86
2019-05-11T03:40:06.942Z,95715.16
2019-05-11T03:42:38.364Z,95716.18
2019-05-11T03:45:09.918Z,95718.59
2019-05-11T03:47:43.974Z,95721.47
2019-05-11T03:50:14.833Z,95715.77
2019-05-11T03:52:46.054Z,95720.31
2019-05-11T03:55:17.398Z,95712.95
2019-05-11T03:57:48.763Z,95707.83
2019-05-11T04:00:20.153Z,95702.00
2019-05-11T04:02:52.967Z,95701.98
2019-05-11T04:05:24.257Z,95695.80
2019-05-11T04:07:55.805Z,95702.76
2019-05-11T04:10:27.281Z,95705.00
2019-05-11T04:12:58.603Z,95705.34
2019-05-11T04:15:30.810Z,95698.72
2019-05-11T04:18:02.085Z,95703.20
2019-05-11T04:20:33.577Z,95700.62
2019-05-11T04:23:04.807Z,95698.62
2019-05-11T04:25:36.147Z,95697.67
2019-05-11T04:28:09.579Z,95698.11
2019-05-11T04:30:41.111Z,95700.62
2019-05-11T04:33:12.357Z,95698.39
2019-05-11T04:35:43.878Z,95697.47
2019-05-11T04:38:15.108Z,95695.39
2019-05-11T04:40:46.456Z,95697.83
2019-05-11T04:43:17.846Z,95693.84
2019-05-11T04:45:49.472Z,95683.12
2019-05-11T04:48:20.785Z,95669.37
2019-05-11T04:50:53.610Z,95680.17
2019-05-11T04:53:24.828Z,95672.80
2019-05-11T04:55:58.275Z,95668.62
2019-05-11T04:58:32.046Z,95668.36
2019-05-11T05:01:03.293Z,95664.37
2019-05-11T05:03:40.982Z,95675.72
2019-05-11T05:06:22.122Z,95668.59
2019-05-11T05:08:40.913Z,95668.47
2019-05-11T05:11:12.343Z,95670.14
2019-05-11T05:13:43.611Z,95672.41
2019-05-11T05:16:16.565Z,95676.48
2019-05-11T05:18:47.878Z,95681.66
2019-05-11T05:21:19.476Z,95675.69
2019-05-11T05:23:50.962Z,95664.33
2019-05-11T05:26:22.176Z,95663.94
2019-05-11T05:28:53.803Z,95660.78
2019-05-11T05:31:24.985Z,95655.66
2019-05-11T05:33:56.444Z,95656.08
2019-05-11T05:36:27.792Z,95655.27
2019-05-11T05:38:59.036Z,95645.33
2019-05-11T05:41:30.512Z,95645.81
2019-05-11T05:44:03.318Z,95638.04
2019-05-11T05:46:35.102Z,95642.71
2019-05-11T05:49:06.340Z,95643.59
2019-05-11T05:51:37.773Z,95647.80
2019-05-11T05:54:09.323Z,95635.78
2019-05-11T05:56:41.341Z,95639.70
2019-05-11T05:59:12.589Z,95632.96
2019-05-11T06:01:43.805Z,95632.69
2019-05-11T06:04:15.271Z,95633.57
2019-05-11T06:06:46.807Z,95635.25
2019-05-11T06:09:18.303Z,95636.48
2019-05-11T06:11:49.639Z,95633.81
2019-05-11T06:14:20.933Z,95636.53
2019-05-11T06:16:52.788Z,95637.86
2019-05-11T06:19:24.845Z,95632.38
2019-05-11T06:21:56.092Z,95632.16
2019-05-11T06:24:27.690Z,95627.81
2019-05-11T06:26:59.226Z,95622.81
2019-05-11T06:29:30.780Z,95625.48
2019-05-11T06:32:02.295Z,95622.89
2019-05-11T06:34:34.132Z,95625.61
2019-05-11T06:37:05.588Z,95619.56
2019-05-11T06:39:36.848Z,95616.38
2019-05-11T06:42:08.148Z,95606.05
2019-05-11T06:44:39.921Z,95597.95
2019-05-11T06:47:11.176Z,95594.15
2019-05-11T06:49:42.868Z,95585.17
2019-05-11T06:52:14.832Z,95581.16
2019-05-11T06:54:46.163Z,95579.68
2019-05-11T06:57:17.453Z,95585.48
2019-05-11T06:59:48.676Z,95588.94
2019-05-11T07:02:19.904Z,95587.98
2019-05-11T07:04:52.963Z,95582.59
2019-05-11T07:07:24.318Z,95579.83
2019-05-11T07:09:55.814Z,95580.72
2019-05-11T07:12:27.890Z,95575.45
2019-05-11T07:14:59.664Z,95566.62
2019-05-11T07:17:31.077Z,95562.75
2019-05-11T07:20:02.391Z,95561.61
2019-05-11T07:22:34.082Z,95561.43
2019-05-11T07:25:05.750Z,95557.25
2019-05-11T07:27:37.237Z,95552.48
2019-05-11T07:30:08.981Z,95555.14
2019-05-11T07:32:40.257Z,95550.61
2019-05-11T07:35:12.232Z,95547.23
2019-05-11T07:37:43.954Z,95549.67
2019-05-11T07:40:15.494Z,95548.07
2019-05-11T07:42:48.540Z,95552.63
2019-05-11T07:45:20.238Z,95557.92
2019-05-11T07:47:51.961Z,95549.56
2019-05-11T07:50:23.323Z,95552.66
2019-05-11T07:52:54.971Z,95564.13
2019-05-11T07:55:28.205Z,95560.58
2019-05-11T07:57:59.202Z,95562.51
2019-05-11T08:00:30.787Z,95557.66
2019-05-11T08:03:02.017Z,95552.00
2019-05-11T08:05:33.544Z,95556.22
2019-05-11T08:08:05.033Z,95552.82
2019-05-11T08:10:39.004Z,95557.95
2019-05-11T08:13:10.774Z,95556.35
2019-05-11T08:15:42.031Z,95547.47
2019-05-11T08:18:13.394Z,95549.08
2019-05-11T08:20:45.008Z,95546.34
2019-05-11T08:23:18.020Z,95550.88
2019-05-11T08:25:49.623Z,95554.25
2019-05-11T08:28:21.530Z,95559.27
2019-05-11T08:30:52.746Z,95562.01
2019-05-11T08:33:29.347Z,95567.64
2019-05-11T08:36:18.495Z,95560.53
2019-05-11T08:38:50.194Z,95564.58
2019-05-11T08:41:21.494Z,95559.90
2019-05-11T08:47:23.394Z,95561.37
2019-05-11T08:49:54.646Z,95554.55
2019-05-11T08:52:28.059Z,95555.52
2019-05-11T08:55:02.062Z,95553.58
2019-05-11T08:57:33.322Z,95560.35
2019-05-11T09:00:04.770Z,95562.43
2019-05-11T09:02:38.186Z,95565.93
2019-05-11T09:05:09.273Z,95560.28
2019-05-11T09:07:40.477Z,95557.36
2019-05-11T09:10:11.877Z,95555.13
2019-05-11T09:12:43.327Z,95555.66
2019-05-11T09:15:31.589Z,95561.81
2019-05-11T09:17:48.859Z,95554.05
2019-05-11T09:20:22.229Z,95553.41
2019-05-11T09:22:53.486Z,95551.16
2019-05-11T09:25:30.304Z,95553.69
2019-05-11T09:28:01.997Z,95553.86
2019-05-11T09:30:44.872Z,95557.09
2019-05-11T09:33:18.514Z,95558.55
2019-05-11T09:35:53.081Z,95565.97
2019-05-11T09:38:22.019Z,95565.13
2019-05-11T09:40:53.856Z,95567.22
2019-05-11T09:43:25.216Z,95570.50
2019-05-11T09:49:12.730Z,95576.41
2019-05-11T09:51:44.749Z,95581.54
2019-05-11T09:54:18.284Z,95583.02
2019-05-11T09:56:51.528Z,95586.79
2019-05-11T09:59:22.906Z,95586.45
2019-05-11T10:01:54.508Z,95588.02
2019-05-11T10:04:25.728Z,95587.51
2019-05-11T10:06:58.511Z,95583.66
2019-05-11T10:09:31.258Z,95593.45
2019-05-11T10:12:02.733Z,95585.98
2019-05-11T10:14:34.745Z,95592.77
2019-05-11T10:17:07.983Z,95596.41
2019-05-11T10:19:39.657Z,95606.02
2019-05-11T10:22:10.964Z,95605.80
2019-05-11T10:24:44.359Z,95605.09
2019-05-11T10:27:15.785Z,95601.02
2019-05-11T10:29:48.368Z,95599.36
2019-05-11T10:32:20.238Z,95601.41
2019-05-11T10:34:51.693Z,95602.12
2019-05-11T10:37:23.090Z,95604.36
2019-05-11T10:39:54.320Z,95602.42
2019-05-11T10:42:25.560Z,95601.34
2019-05-11T10:44:58.312Z,95595.55
2019-05-11T10:47:30.492Z,95598.20
2019-05-11T10:50:02.304Z,95591.57
2019-05-11T10:52:33.613Z,95594.55
2019-05-11T10:55:04.846Z,95588.80
2019-05-11T10:57:38.694Z,95596.24
2019-05-11T11:00:11.300Z,95587.33
2019-05-11T11:02:42.834Z,95584.08
2019-05-11T11:05:14.583Z,95590.14
2019-05-11T11:07:48.378Z,95593.88
2019-05-11T11:10:19.963Z,95588.64
2019-05-11T11:12:51.163Z,95596.16
2019-05-11T11:15:23.205Z,95596.12
2019-05-11T11:17:54.529Z,95607.48
2019-05-11T11:20:28.041Z,95594.28
2019-05-11T11:22:59.136Z,95595.95
2019-05-11T11:25:30.895Z,95599.35
2019-05-11T11:28:02.495Z,95598.08
2019-05-11T11:30:34.321Z,95601.48
2019-05-11T11:33:07.814Z,95594.45
2019-05-11T11:35:39.426Z,95595.64
2019-05-11T11:38:10.826Z,95597.90
2019-05-11T11:40:42.900Z,95598.55
2019-05-11T11:43:14.504Z,95596.70
2019-05-11T11:45:48.281Z,95589.55
2019-05-11T11:48:19.128Z,95592.23
2019-05-11T11:50:50.477Z,95589.56
2019-05-11T11:53:21.890Z,95579.32
2019-05-11T11:55:53.372Z,95573.96
2019-05-11T11:58:24.603Z,95565.91
2019-05-11T12:00:55.867Z,95569.44
2019-05-11T12:03:27.799Z,95575.11
2019-05-11T12:05:59.497Z,95576.33
2019-05-11T12:08:32.694Z,95571.80
2019-05-11T12:11:03.979Z,95576.05
2019-05-11T12:13:35.272Z,95573.60
2019-05-11T12:16:07.759Z,95569.36
2019-05-11T12:18:41.936Z,95573.45
2019-05-11T12:21:13.334Z,95574.75
2019-05-11T12:23:44.546Z,95575.59
2019-05-11T12:26:17.723Z,95578.70
2019-05-11T12:28:49.270Z,95578.38
2019-05-11T12:31:20.780Z,95577.82
2019-05-11T12:33:52.235Z,95566.65
2019-05-11T12:36:23.824Z,95563.48
2019-05-11T12:38:55.119Z,95563.72
2019-05-11T12:41:28.012Z,95561.28
2019-05-11T12:43:59.961Z,95559.60
2019-05-11T12:46:31.849Z,95559.16
2019-05-11T12:49:03.297Z,95552.08
2019-05-11T12:51:34.569Z,95547.96
2019-05-11T12:54:08.083Z,95550.91
2019-05-11T12:56:39.457Z,95555.36
2019-05-11T12:59:10.850Z,95540.38
2019-05-11T13:01:42.128Z,95541.18
2019-05-11T13:04:13.409Z,95533.14
2019-05-11T13:06:47.985Z,95535.36
2019-05-11T13:09:19.379Z,95528.65
2019-05-11T13:11:51.464Z,95519.34
2019-05-11T13:14:22.701Z,95511.41
2019-05-11T13:16:54.126Z,95512.81
2019-05-11T13:19:27.983Z,95508.48
2019-05-11T13:21:59.101Z,95507.43
2019-05-11T13:24:30.558Z,95513.08
2019-05-11T13:27:02.349Z,95519.66
2019-05-11T13:29:33.562Z,95512.87
2019-05-11T13:32:05.290Z,95506.48
2019-05-11T13:34:38.716Z,95503.59
2019-05-11T13:37:09.985Z,95500.58
2019-05-11T13:39:42.208Z,95505.38
2019-05-11T13:42:13.865Z,95505.65
2019-05-11T13:44:47.709Z,95506.23
2019-05-11T13:47:18.425Z,95504.68
2019-05-11T13:49:50.017Z,95507.83
2019-05-11T13:52:21.916Z,95509.77
2019-05-11T13:54:53.612Z,95513.33
2019-05-11T13:57:25.142Z,95518.75
2019-05-11T13:59:57.953Z,95525.24
2019-05-11T14:02:30.708Z,95521.95
2019-05-11T14:05:02.055Z,95514.64
2019-05-11T14:07:33.681Z,95510.78
2019-05-11T14:10:07.869Z,95509.19
2019-05-11T14:12:38.810Z,95511.34
2019-05-11T14:15:10.569Z,95506.89
2019-05-11T14:17:42.081Z,95501.96
2019-05-11T14:20:14.169Z,95505.92
2019-05-11T14:22:47.803Z,95498.48
2019-05-11T14:25:18.985Z,95500.30
2019-05-11T14:27:50.234Z,95490.91
2019-05-11T14:30:21.757Z,95494.41
2019-05-11T14:32:53.098Z,95501.08
2019-05-11T14:35:24.383Z,95497.22
2019-05-11T14:37:55.607Z,95494.03
2019-05-11T14:43:33.360Z,95503.66
2019-05-11T14:49:41.576Z,95494.30
2019-05-11T14:52:13.040Z,95499.22
2019-05-11T14:54:44.806Z,95493.25
2019-05-11T14:57:18.560Z,95488.63
2019-05-11T14:59:49.761Z,95488.31
2019-05-11T15:02:38.853Z,95494.91
2019-05-11T15:05:10.482Z,95493.62
2019-05-11T15:07:41.715Z,95496.17
2019-05-11T15:10:13.204Z,95498.19
2019-05-11T15:12:44.678Z,95497.22
2019-05-11T15:15:18.696Z,95510.19
2019-05-11T15:17:50.310Z,95511.12
2019-05-11T15:20:21.797Z,95511.08
2019-05-11T15:22:53.028Z,95507.52
2019-05-11T15:25:24.280Z,95513.30
2019-05-11T15:27:58.471Z,95521.36
2019-05-11T15:30:32.654Z,95521.78
2019-05-11T15:33:07.750Z,95522.30
2019-05-11T15:35:42.760Z,95526.23
2019-05-11T15:38:17.898Z,95520.37
2019-05-11T15:40:51.062Z,95522.21
2019-05-11T15:43:23.091Z,95521.27
2019-05-11T15:45:57.894Z,95518.71
2019-05-11T15:48:34.110Z,95510.57
2019-05-11T15:51:09.334Z,95440.81
2019-05-11T15:53:43.845Z,95503.75
2019-05-11T15:56:19.097Z,95507.71
2019-05-11T15:58:53.829Z,95504.81
2019-05-11T16:01:28.874Z,95503.61
2019-05-11T16:04:03.265Z,95502.34
2019-05-11T16:06:35.897Z,95505.84
2019-05-11T16:09:10.330Z,95503.44
2019-05-11T16:11:47.733Z,95504.28
2019-05-11T16:14:19.588Z,95501.89
2019-05-11T16:16:53.035Z,95494.72
2019-05-11T16:19:25.148Z,95487.95
2019-05-11T16:21:59.548Z,95487.94
2019-05-11T16:24:32.714Z,95491.14
2019-05-11T16:27:05.064Z,95491.20
2019-05-11T16:29:38.540Z,95501.25
2019-05-11T16:32:11.254Z,95510.26
2019-05-11T16:34:44.073Z,95535.97
2019-05-11T16:37:18.403Z,95557.05
2019-05-11T16:39:51.613Z,95577.98
2019-05-11T16:42:23.785Z,95589.12
2019-05-11T16:44:57.806Z,95599.70
2019-05-11T16:47:29.398Z,95617.53
2019-05-11T16:50:02.749Z,95626.84
2019-05-11T16:52:35.377Z,95639.95
2019-05-11T16:55:07.993Z,95649.55
2019-05-11T16:57:42.980Z,95650.52
2019-05-11T17:00:14.580Z,95659.88
2019-05-11T17:02:49.093Z,95677.36
2019-05-11T17:05:27.052Z,95674.34
2019-05-11T17:07:58.738Z,95682.02
2019-05-11T17:10:32.444Z,95691.34
2019-05-11T17:13:08.640Z,95692.22
2019-05-11T17:15:41.639Z,95699.55
2019-05-11T17:18:15.161Z,95713.17
2019-05-11T17:20:47.616Z,95715.40
2019-05-11T17:23:23.320Z,95721.78
2019-05-11T17:25:57.960Z,95727.34
2019-05-11T17:28:30.680Z,95745.89
2019-05-11T17:31:03.463Z,95748.99
2019-05-11T17:33:35.593Z,95754.13
2019-05-11T17:36:10.186Z,95755.70
2019-05-11T17:38:43.161Z,95767.52
2019-05-11T17:41:15.480Z,95770.30
2019-05-11T17:43:48.055Z,95770.72
2019-05-11T17:46:19.438Z,95771.14
2019-05-11T17:48:52.778Z,95771.27
2019-05-11T17:51:28.577Z,95771.60
2019-05-11T17:54:02.833Z,95780.11
2019-05-11T17:56:42.063Z,95780.80
2019-05-11T17:59:23.612Z,95780.33
2019-05-11T18:01:57.971Z,95781.07
2019-05-11T18:04:30.691Z,95783.83
2019-05-11T18:07:04.957Z,95793.95
2019-05-11T18:09:39.261Z,95798.77
2019-05-11T18:12:10.872Z,95804.28
2019-05-11T18:14:43.629Z,95803.59
2019-05-11T18:17:18.064Z,95817.16
2019-05-11T18:19:53.330Z,95828.05
2019-05-11T18:22:25.346Z,95846.17
2019-05-11T18:24:58.643Z,95864.26
2019-05-11T18:27:32.217Z,95876.13
2019-05-11T18:30:08.618Z,95885.91
2019-05-11T18:32:41.114Z,95894.70
2019-05-11T18:35:12.988Z,95902.10
2019-05-11T18:37:47.747Z,95908.81
2019-05-11T18:40:20.853Z,95909.79
2019-05-11T18:42:52.950Z,95913.94
2019-05-11T18:45:28.579Z,95912.39
2019-05-11T18:48:03.169Z,95915.91
2019-05-11T18:50:34.850Z,95917.13
2019-05-11T18:53:09.423Z,95923.05
2019-05-11T18:55:43.546Z,95932.45
2019-05-11T18:58:18.398Z,95942.33
2019-05-11T19:00:49.699Z,95944.11
2019-05-11T19:03:23.028Z,95965.16
2019-05-11T19:05:57.625Z,95965.75
2019-05-11T19:08:32.077Z,95963.96
2019-05-11T19:11:11.785Z,95959.81
2019-05-11T19:13:43.839Z,95966.73
2019-05-11T19:16:18.742Z,95972.42
2019-05-11T19:18:52.935Z,95970.48
2019-05-11T19:21:25.433Z,95973.05
2019-05-11T19:23:58.847Z,95975.55
2019-05-11T19:26:30.311Z,95971.21
2019-05-11T19:29:02.104Z,95972.17
2019-05-11T19:31:38.435Z,95976.25
2019-05-11T19:34:11.132Z,95978.72
2019-05-11T19:36:44.129Z,95982.43
2019-05-11T19:39:19.183Z,95984.86
2019-05-11T19:41:50.593Z,95983.81
2019-05-11T19:44:23.200Z,95987.22
2019-05-11T19:46:58.123Z,95998.94
2019-05-11T19:49:31.017Z,96002.66
2019-05-11T19:52:05.417Z,96000.40
2019-05-11T19:54:38.413Z,96003.73
2019-05-11T19:57:09.747Z,96007.72
2019-05-11T19:59:42.350Z,96001.09
2019-05-11T20:02:17.873Z,96007.00
2019-05-11T20:04:51.723Z,96004.44
2019-05-11T20:07:23.611Z,95999.69
2019-05-11T20:10:03.008Z,96001.48
2019-05-11T20:12:38.192Z,96005.81
2019-05-11T20:15:10.393Z,96009.75
2019-05-11T20:17:43.549Z,96015.45
2019-05-11T20:20:18.882Z,96023.25
2019-05-11T20:22:52.705Z,96032.92
2019-05-11T20:25:24.190Z,96034.41
2019-05-11T20:27:55.429Z,96040.38
2019-05-11T20:30:26.623Z,96037.81
2019-05-11T20:32:59.491Z,96035.76
2019-05-11T20:35:32.681Z,96029.22
2019-05-11T20:38:08.470Z,96027.37
2019-05-11T20:40:40.386Z,96018.05
2019-05-11T20:43:12.703Z,96021.40
2019-05-11T20:45:44.365Z,96018.83
2019-05-11T20:48:19.291Z,96013.83
2019-05-11T20:50:51.441Z,96008.89
2019-05-11T20:53:28.665Z,96007.08
2019-05-11T20:56:01.894Z,96007.25
2019-05-11T20:58:53.485Z,96001.56
2019-05-11T21:01:33.191Z,95997.55
2019-05-11T21:04:08.497Z,95996.45
2019-05-11T21:06:43.215Z,95996.02
2019-05-11T21:09:18.460Z,95999.16
2019-05-11T21:11:58.879Z,96003.33
2019-05-11T21:14:34.263Z,96000.45
2019-05-11T21:17:08.889Z,95989.72
2019-05-11T21:19:42.680Z,95983.47
2019-05-11T21:22:13.698Z,95984.00
2019-05-11T21:24:49.584Z,95990.19
2019-05-11T21:27:25.276Z,95988.08
2019-05-11T21:29:59.164Z,95990.31
2019-05-11T21:32:31.835Z,95992.59
2019-05-11T21:35:12.309Z,95986.70
2019-05-11T21:37:49.844Z,95988.37
2019-05-11T21:40:31.370Z,95989.95
2019-05-11T21:43:03.654Z,95988.28
2019-05-11T21:45:40.522Z,95992.91
2019-05-11T21:48:15.268Z,95987.30
2019-05-11T21:50:53.009Z,95993.27
2019-05-11T21:53:35.405Z,95989.00
2019-05-11T21:56:19.974Z,95993.52
2019-05-11T21:58:55.772Z,95988.62
2019-05-11T22:01:31.733Z,95993.52
2019-05-11T22:04:02.960Z,95999.66
2019-05-11T22:06:38.992Z,95949.58
2019-05-11T22:09:19.079Z,96000.45
2019-05-11T22:12:01.467Z,95998.03
2019-05-11T22:14:34.634Z,96005.02
2019-05-11T22:17:07.705Z,96010.59
2019-05-11T22:19:40.778Z,96002.76
2019-05-11T22:22:24.944Z,96003.85
2019-05-11T22:24:52.614Z,96004.30
2019-05-11T22:27:27.823Z,96006.87
2019-05-11T22:30:00.342Z,96004.95
2019-05-11T22:32:32.904Z,96002.28
2019-05-11T22:35:08.581Z,95998.87
2019-05-11T22:37:39.804Z,95998.05
2019-05-11T22:40:12.424Z,95997.92
2019-05-11T22:42:45.039Z,95992.78
2019-05-11T22:45:18.740Z,95997.20
2019-05-11T22:47:51.922Z,95996.09
2019-05-11T22:50:25.056Z,95996.11
2019-05-11T22:52:57.747Z,95998.03
2019-05-11T22:55:29.818Z,95996.55
2019-05-11T22:58:03.130Z,96002.77
2019-05-11T23:00:41.359Z,96002.41
2019-05-11T23:03:18.900Z,96007.46
2019-05-11T23:05:51.605Z,96005.27
2019-05-11T23:08:23.214Z,96009.81
2019-05-11T23:10:58.105Z,96010.73
2019-05-11T23:13:32.625Z,96017.47
2019-05-11T23:16:04.155Z,96017.91
2019-05-11T23:18:38.957Z,96022.58
2019-05-11T23:21:12.135Z,96019.31
2019-05-11T23:23:44.107Z,96010.92
2019-05-11T23:26:17.893Z,96016.50
2019-05-11T23:28:49.480Z,96010.02
2019-05-11T23:31:24.255Z,96014.91
2019-05-11T23:33:59.180Z,96020.02
2019-05-11T23:36:34.649Z,96024.32
2019-05-11T23:39:09.184Z,96017.92
2019-05-11T23:41:40.799Z,96019.41
2019-05-11T23:44:14.283Z,96016.48
2019-05-11T23:46:47.929Z,96014.25
2019-05-11T23:49:21.284Z,96009.94
2019-05-11T23:51:54.090Z,96007.97
2019-05-11T23:54:28.483Z,96005.62
2019-05-11T23:57:00.055Z,95998.63
2019-05-11T23:59:32.442Z,96006.16
